Time;durP1;ratioP1;P1;durP2;ratioP2;P2;SDS_P1;SDS_P2;PMS_P1;PMS_P2;Temp;Humidity;BMP_temperature;BMP_pressure;BME280_temperature;BME280_humidity;BME280_pressure;Samples;Min_cycle;Max_cycle;Signal;HPM_P1;HPM_P2
2024/04/16 00:00:37;;;;;;;18.27;2.78;;;9.50;99.90;;;;;;5505501;26;19998;-44
2024/04/16 00:03:03;;;;;;;20.05;3.38;;;9.50;99.90;;;;;;5505248;26;19990;-44
2024/04/16 00:05:29;;;;;;;15.00;2.95;;;9.50;99.90;;;;;;5504504;26;19994;-43
2024/04/16 00:07:55;;;;;;;15.13;2.78;;;9.60;99.90;;;;;;5505450;26;20054;-43
2024/04/16 00:10:21;;;;;;;13.50;3.03;;;9.70;99.90;;;;;;5505570;26;19990;-43
2024/04/16 00:12:49;;;;;;;14.25;2.67;;;9.70;99.90;;;;;;5504580;26;19996;-43
2024/04/16 00:15:15;;;;;;;14.60;2.60;;;9.70;99.90;;;;;;5504870;26;19994;-42
2024/04/16 00:17:41;;;;;;;14.27;2.85;;;9.70;99.90;;;;;;5505381;26;20043;-43
2024/04/16 00:20:07;;;;;;;14.75;2.40;;;9.60;99.90;;;;;;5505410;26;20035;-43
2024/04/16 00:22:33;;;;;;;17.10;3.55;;;9.60;99.90;;;;;;5505449;26;19992;-43
2024/04/16 00:24:59;;;;;;;11.90;2.97;;;9.50;99.90;;;;;;5504814;26;19982;-44
2024/04/16 00:27:25;;;;;;;18.17;3.10;;;9.50;99.90;;;;;;5504347;26;20145;-44
2024/04/16 00:29:50;;;;;;;15.77;2.60;;;9.60;99.90;;;;;;5505119;26;19982;-44
2024/04/16 00:32:16;;;;;;;11.93;2.53;;;9.50;99.90;;;;;;5504989;26;20014;-46
2024/04/16 00:34:42;;;;;;;13.80;2.55;;;9.50;99.90;;;;;;5504851;26;19997;-44
2024/04/16 00:37:07;;;;;;;12.32;2.30;;;9.40;99.90;;;;;;5504513;26;20039;-43
2024/04/16 00:39:33;;;;;;;13.63;3.38;;;9.40;99.90;;;;;;5504712;26;20044;-46
2024/04/16 00:41:59;;;;;;;12.43;2.70;;;9.30;99.90;;;;;;5503866;26;20039;-45
2024/04/16 00:44:24;;;;;;;12.38;4.03;;;9.30;99.90;;;;;;5504935;26;20010;-44
2024/04/16 00:46:54;;;;;;;18.13;3.67;;;9.30;99.90;;;;;;5504818;26;19986;-43
2024/04/16 00:49:19;;;;;;;10.65;2.20;;;9.20;99.90;;;;;;5505039;26;19986;-43
2024/04/16 00:51:45;;;;;;;13.18;2.40;;;9.20;99.90;;;;;;5507540;26;20168;-44
2024/04/16 00:54:11;;;;;;;21.02;3.00;;;9.20;99.90;;;;;;5507515;26;20052;-44
2024/04/16 00:56:36;;;;;;;11.10;2.60;;;9.20;99.90;;;;;;5507358;26;19993;-44
2024/04/16 00:59:05;;;;;;;11.90;2.40;;;9.10;99.90;;;;;;5507073;26;20090;-43
2024/04/16 01:01:31;;;;;;;9.57;1.83;;;9.10;99.90;;;;;;5507188;26;20039;-44
2024/04/16 01:03:56;;;;;;;13.05;2.75;;;9.10;99.90;;;;;;5508049;26;20177;-43
2024/04/16 01:06:25;;;;;;;14.43;2.55;;;9.10;99.90;;;;;;5508176;26;19986;-43
2024/04/16 01:08:51;;;;;;;15.40;2.38;;;9.10;99.90;;;;;;5508211;26;19998;-43
2024/04/16 01:11:24;;;;;;;11.55;2.60;;;9.10;99.90;;;;;;5507696;26;20018;-43
2024/04/16 01:13:49;;;;;;;12.02;2.53;;;9.10;99.90;;;;;;5508021;26;19998;-48
2024/04/16 01:16:15;;;;;;;15.80;2.65;;;9.00;99.90;;;;;;5507935;26;20091;-47
2024/04/16 01:18:41;;;;;;;12.43;2.60;;;9.00;99.90;;;;;;5507767;26;20052;-46
2024/04/16 01:21:06;;;;;;;15.40;3.60;;;9.00;99.90;;;;;;5507392;26;19990;-46
2024/04/16 01:23:32;;;;;;;15.20;3.35;;;9.00;99.90;;;;;;5507814;26;20006;-45
2024/04/16 01:25:58;;;;;;;9.75;2.20;;;9.00;99.90;;;;;;5507892;26;19987;-46
2024/04/16 01:28:23;;;;;;;18.27;2.40;;;9.00;99.90;;;;;;5507893;26;19993;-46
2024/04/16 01:30:49;;;;;;;17.27;2.75;;;9.00;99.90;;;;;;5507354;26;19998;-48
2024/04/16 01:33:14;;;;;;;15.25;3.33;;;9.00;99.90;;;;;;5507080;26;19997;-45
2024/04/16 01:35:40;;;;;;;11.82;2.20;;;9.00;99.90;;;;;;5507741;26;20060;-47
2024/04/16 01:38:06;;;;;;;10.07;2.20;;;9.00;99.90;;;;;;5507627;26;19986;-49
2024/04/16 01:40:31;;;;;;;15.68;2.78;;;9.00;99.90;;;;;;5507613;26;20039;-50
2024/04/16 01:42:57;;;;;;;14.85;2.40;;;9.00;99.90;;;;;;5507554;26;20153;-50
2024/04/16 01:45:23;;;;;;;19.60;2.83;;;9.00;99.90;;;;;;5507590;26;20056;-50
2024/04/16 01:47:48;;;;;;;13.18;2.45;;;9.00;99.90;;;;;;5507368;26;20094;-50
2024/04/16 01:50:14;;;;;;;16.20;2.75;;;9.00;99.90;;;;;;5507497;26;20224;-50
2024/04/16 01:52:40;;;;;;;14.52;2.92;;;9.00;99.90;;;;;;5507661;26;20035;-49
2024/04/16 01:55:05;;;;;;;17.60;2.70;;;9.00;99.90;;;;;;5506999;26;20043;-50
2024/04/16 01:57:31;;;;;;;15.88;3.13;;;9.00;99.90;;;;;;5507638;26;20098;-49
2024/04/16 01:59:56;;;;;;;17.77;3.08;;;9.00;99.90;;;;;;5506610;26;20056;-50
2024/04/16 02:02:23;;;;;;;16.00;3.13;;;9.00;99.90;;;;;;5507492;26;20001;-46
2024/04/16 02:04:48;;;;;;;16.20;3.42;;;8.90;99.90;;;;;;5507230;26;20010;-49
2024/04/16 02:07:14;;;;;;;13.68;3.00;;;8.90;99.90;;;;;;5507023;26;19998;-46
2024/04/16 02:09:39;;;;;;;15.43;3.05;;;8.90;99.90;;;;;;5507006;26;19990;-47
2024/04/16 02:12:05;;;;;;;14.20;2.70;;;8.90;99.90;;;;;;5507207;26;19993;-47
2024/04/16 02:14:31;;;;;;;11.30;2.53;;;8.90;99.90;;;;;;5507134;26;20005;-50
2024/04/16 02:16:57;;;;;;;13.23;2.78;;;8.90;99.90;;;;;;5506602;26;19996;-48
2024/04/16 02:19:22;;;;;;;14.88;3.08;;;8.90;99.90;;;;;;5506265;26;19990;-49
2024/04/16 02:21:48;;;;;;;18.30;2.80;;;8.90;99.90;;;;;;5506980;26;20026;-50
2024/04/16 02:24:14;;;;;;;14.73;2.50;;;8.90;99.90;;;;;;5506115;26;19998;-49
2024/04/16 02:26:40;;;;;;;9.80;2.88;;;8.90;99.90;;;;;;5506781;26;19986;-48
2024/04/16 02:29:06;;;;;;;15.50;2.80;;;8.90;99.90;;;;;;5506577;26;20160;-47
2024/04/16 02:31:32;;;;;;;15.20;2.30;;;8.90;99.90;;;;;;5507076;26;19986;-49
2024/04/16 02:33:57;;;;;;;14.23;2.67;;;8.90;99.90;;;;;;5506676;26;20073;-50
2024/04/16 02:36:23;;;;;;;15.88;2.92;;;8.90;99.90;;;;;;5506903;26;19987;-50
2024/04/16 02:38:48;;;;;;;14.60;2.33;;;8.90;99.90;;;;;;5506481;26;19997;-46
2024/04/16 02:41:14;;;;;;;18.98;3.25;;;8.90;99.90;;;;;;5506175;26;20036;-49
2024/04/16 02:43:40;;;;;;;19.20;3.72;;;8.90;99.90;;;;;;5506434;26;20153;-49
2024/04/16 02:46:06;;;;;;;15.30;2.58;;;8.90;99.90;;;;;;5506676;26;20040;-49
2024/04/16 02:48:31;;;;;;;20.23;3.28;;;8.90;99.90;;;;;;5506852;26;19998;-50
2024/04/16 02:50:58;;;;;;;15.70;3.45;;;9.00;99.90;;;;;;5506389;26;19996;-50
2024/04/16 02:53:23;;;;;;;19.38;3.67;;;8.90;99.90;;;;;;5505708;26;20046;-50
2024/04/16 02:55:49;;;;;;;16.38;3.20;;;9.00;99.90;;;;;;5506574;26;19990;-50
2024/04/16 02:58:15;;;;;;;14.25;2.75;;;9.00;99.90;;;;;;5506664;26;20036;-47
2024/04/16 03:00:40;;;;;;;15.52;3.92;;;9.00;99.90;;;;;;5506580;26;20011;-47
2024/04/16 03:03:06;;;;;;;14.65;2.45;;;9.00;99.90;;;;;;5506237;26;20039;-49
2024/04/16 03:05:32;;;;;;;13.80;2.78;;;9.00;99.90;;;;;;5506327;26;20185;-49
2024/04/16 03:07:57;;;;;;;22.02;3.45;;;9.00;99.90;;;;;;5506493;26;19986;-47
2024/04/16 03:10:23;;;;;;;19.30;4.53;;;8.90;99.90;;;;;;5506453;26;19993;-50
2024/04/16 03:12:51;;;;;;;29.50;3.58;;;8.90;99.90;;;;;;5504880;26;19986;-48
2024/04/16 03:15:17;;;;;;;17.15;3.13;;;8.90;99.90;;;;;;5505863;26;20176;-50
2024/04/16 03:17:42;;;;;;;13.23;3.58;;;8.90;99.90;;;;;;5506394;26;19986;-49
2024/04/16 03:20:08;;;;;;;18.25;3.38;;;8.90;99.90;;;;;;5506091;26;20040;-50
2024/04/16 03:22:34;;;;;;;18.30;3.72;;;8.90;99.90;;;;;;5506293;26;20056;-47
2024/04/16 03:25:00;;;;;;;14.13;2.88;;;8.90;99.90;;;;;;5505976;26;19990;-49
2024/04/16 03:27:25;;;;;;;15.32;2.58;;;8.90;99.90;;;;;;5506307;26;19991;-50
2024/04/16 03:29:51;;;;;;;19.40;3.35;;;8.80;99.90;;;;;;5506073;26;20102;-49
2024/04/16 03:32:16;;;;;;;17.00;2.88;;;8.80;99.90;;;;;;5505916;26;19989;-49
2024/04/16 03:34:42;;;;;;;16.33;3.20;;;8.80;99.90;;;;;;5505908;26;19990;-49
2024/04/16 03:37:08;;;;;;;17.95;3.05;;;8.70;99.90;;;;;;5504924;26;19998;-50
2024/04/16 03:39:34;;;;;;;13.07;2.80;;;8.70;99.90;;;;;;5505687;26;19986;-46
2024/04/16 03:41:59;;;;;;;15.82;3.00;;;8.70;99.90;;;;;;5505840;26;19990;-50
2024/04/16 03:44:25;;;;;;;16.65;2.60;;;8.70;99.90;;;;;;5505708;26;19990;-49
2024/04/16 03:46:51;;;;;;;15.65;2.90;;;8.60;99.90;;;;;;5505699;26;20225;-49
2024/04/16 03:49:16;;;;;;;24.08;3.80;;;8.60;99.90;;;;;;5505354;26;20005;-50
2024/04/16 03:51:42;;;;;;;13.68;2.83;;;8.60;99.90;;;;;;5505679;26;19990;-49
2024/04/16 03:54:07;;;;;;;16.27;2.88;;;8.60;99.90;;;;;;5505852;26;20002;-50
2024/04/16 03:56:33;;;;;;;17.33;2.75;;;8.60;99.90;;;;;;5505620;26;20052;-50
2024/04/16 03:59:16;;;;;;;15.98;2.95;;;8.50;99.90;;;;;;5505127;26;20060;-45
2024/04/16 04:01:44;;;;;;;14.50;2.50;;;8.50;99.90;;;;;;5505318;26;20040;-45
2024/04/16 04:04:11;;;;;;;15.77;2.58;;;8.50;99.90;;;;;;5505558;26;19990;-46
2024/04/16 04:06:37;;;;;;;14.27;2.70;;;8.50;99.90;;;;;;5505632;26;20018;-50
2024/04/16 04:09:02;;;;;;;11.85;2.20;;;8.40;99.90;;;;;;5504338;26;19990;-52
2024/04/16 04:11:28;;;;;;;14.80;2.97;;;8.40;99.90;;;;;;5505531;26;19994;-49
2024/04/16 04:13:54;;;;;;;17.70;2.80;;;8.40;99.90;;;;;;5505263;26;20052;-48
2024/04/16 04:16:19;;;;;;;16.95;3.05;;;8.40;99.90;;;;;;5505286;26;19986;-49
2024/04/16 04:18:45;;;;;;;15.50;3.03;;;8.40;99.90;;;;;;5505096;26;19994;-47
2024/04/16 04:21:11;;;;;;;14.05;2.83;;;8.40;99.90;;;;;;5504745;26;20160;-47
2024/04/16 04:23:36;;;;;;;16.20;2.97;;;8.40;99.90;;;;;;5504863;26;19986;-46
2024/04/16 04:26:02;;;;;;;16.15;2.97;;;8.40;99.90;;;;;;5504944;26;19990;-50
2024/04/16 04:28:28;;;;;;;14.55;2.58;;;8.30;99.90;;;;;;5505206;26;20057;-49
2024/04/16 04:30:53;;;;;;;12.93;2.63;;;8.30;99.90;;;;;;5504808;26;19986;-49
2024/04/16 04:33:19;;;;;;;14.80;2.90;;;8.30;99.90;;;;;;5504712;26;19998;-49
2024/04/16 04:35:45;;;;;;;12.40;2.45;;;8.30;99.90;;;;;;5504556;26;20060;-48
2024/04/16 04:38:10;;;;;;;15.57;2.47;;;8.30;99.90;;;;;;5504971;26;19994;-48
2024/04/16 04:40:36;;;;;;;14.02;3.70;;;8.30;99.90;;;;;;5504860;26;20002;-49
2024/04/16 04:43:02;;;;;;;15.20;2.83;;;8.30;99.90;;;;;;5504640;26;19997;-48
2024/04/16 04:45:28;;;;;;;18.02;3.30;;;8.30;99.90;;;;;;5504547;26;19997;-48
2024/04/16 04:47:53;;;;;;;15.65;2.70;;;8.30;99.90;;;;;;5504109;26;20001;-49
2024/04/16 04:50:19;;;;;;;14.40;3.53;;;8.30;99.90;;;;;;5504545;26;20049;-49
2024/04/16 04:52:45;;;;;;;20.05;2.92;;;8.40;99.90;;;;;;5503844;26;19986;-46
2024/04/16 04:55:10;;;;;;;18.17;2.38;;;8.40;99.90;;;;;;5504331;26;19993;-49
2024/04/16 04:57:36;;;;;;;17.25;2.70;;;8.50;99.90;;;;;;5504365;26;19986;-49
2024/04/16 05:00:03;;;;;;;15.60;2.60;;;8.50;99.90;;;;;;5504496;26;19982;-50
2024/04/16 05:02:29;;;;;;;21.15;3.15;;;8.50;99.90;;;;;;5504274;26;20044;-50
2024/04/16 05:04:54;;;;;;;18.45;3.15;;;8.60;99.90;;;;;;5504232;26;20129;-46
2024/04/16 05:07:20;;;;;;;18.38;3.58;;;8.60;99.90;;;;;;5504420;26;19986;-49
2024/04/16 05:09:48;;;;;;;18.23;2.88;;;8.60;99.90;;;;;;5504635;26;19989;-49
2024/04/16 05:12:14;;;;;;;15.80;3.17;;;8.50;99.90;;;;;;5504408;26;20165;-49
2024/04/16 05:14:39;;;;;;;20.95;5.20;;;8.50;99.90;;;;;;5503977;26;19998;-50
2024/04/16 05:17:05;;;;;;;16.98;2.85;;;8.50;99.90;;;;;;5503660;26;20052;-49
2024/04/16 05:19:30;;;;;;;14.38;2.78;;;8.50;99.90;;;;;;5503334;26;19997;-49
2024/04/16 05:21:56;;;;;;;16.20;3.53;;;8.50;99.90;;;;;;5503877;26;20022;-48
2024/04/16 05:24:22;;;;;;;18.13;3.25;;;8.50;99.90;;;;;;5504044;26;19990;-49
2024/04/16 05:26:47;;;;;;;14.43;2.70;;;8.50;99.90;;;;;;5503682;26;19997;-50
2024/04/16 05:29:13;;;;;;;15.52;2.88;;;8.50;99.90;;;;;;5503782;26;19990;-50
2024/04/16 05:31:38;;;;;;;19.05;2.70;;;8.50;99.90;;;;;;5503765;26;19990;-49
2024/04/16 05:34:04;;;;;;;16.83;2.58;;;8.50;99.90;;;;;;5472335;26;19990;-49
2024/04/16 05:36:30;;;;;;;17.05;10.40;;;8.60;99.90;;;;;;5506147;26;20064;-49
2024/04/16 05:38:55;;;;;;;11.00;2.50;;;8.50;99.90;;;;;;5507053;26;19990;-49
2024/04/16 05:41:21;;;;;;;12.93;2.67;;;8.50;99.90;;;;;;5507312;26;20702;-50
2024/04/16 05:43:47;;;;;;;12.18;2.33;;;8.60;99.90;;;;;;5507633;26;19997;-49
2024/04/16 05:46:13;;;;;;;16.80;6.60;;;8.70;99.90;;;;;;5506933;26;20001;-48
2024/04/16 05:48:39;;;;;;;15.70;3.17;;;8.70;99.90;;;;;;5507032;26;19991;-50
2024/04/16 05:51:04;;;;;;;14.27;2.92;;;8.80;99.90;;;;;;5505035;26;19997;-49
2024/04/16 05:53:30;;;;;;;16.08;2.90;;;8.90;99.90;;;;;;5507282;26;19990;-48
2024/04/16 05:55:56;;;;;;;11.68;2.25;;;9.00;99.90;;;;;;5506022;26;19990;-50
2024/04/16 05:58:24;;;;;;;12.70;3.25;;;9.10;99.90;;;;;;5506882;26;19993;-48
2024/04/16 06:00:49;;;;;;;14.25;2.42;;;9.20;99.90;;;;;;5507106;26;19990;-50
2024/04/16 06:03:15;;;;;;;13.80;2.80;;;9.30;99.90;;;;;;5506885;26;20052;-50
2024/04/16 06:05:41;;;;;;;12.60;3.13;;;9.30;99.90;;;;;;5507072;26;19990;-50
2024/04/16 06:08:07;;;;;;;13.77;2.72;;;9.40;99.90;;;;;;5506069;26;19990;-46
2024/04/16 06:10:33;;;;;;;16.13;2.40;;;9.40;99.90;;;;;;5506802;26;19986;-46
2024/04/16 06:12:58;;;;;;;12.65;2.40;;;9.50;99.90;;;;;;5475205;26;20011;-46
2024/04/16 06:15:24;;;;;;;14.68;3.08;;;9.50;99.90;;;;;;5506912;26;19990;-47
2024/04/16 06:17:50;;;;;;;9.88;1.88;;;9.50;99.90;;;;;;5507013;26;19991;-47
2024/04/16 06:20:16;;;;;;;8.45;2.15;;;9.50;99.90;;;;;;5506171;26;20161;-50
2024/04/16 06:22:41;;;;;;;15.02;2.15;;;9.40;99.90;;;;;;5506808;26;20002;-49
2024/04/16 06:25:07;;;;;;;15.00;2.70;;;9.40;99.90;;;;;;5506447;26;19990;-50
2024/04/16 06:27:33;;;;;;;12.25;2.30;;;9.40;99.90;;;;;;5506413;26;19990;-50
2024/04/16 06:29:59;;;;;;;13.10;2.50;;;9.40;99.90;;;;;;5506432;26;19990;-48
2024/04/16 06:32:24;;;;;;;12.40;3.13;;;9.40;99.90;;;;;;5506113;26;19996;-48
2024/04/16 06:34:50;;;;;;;11.40;2.10;;;9.40;99.90;;;;;;5506090;26;19989;-46
2024/04/16 06:37:16;;;;;;;10.65;2.40;;;9.40;99.90;;;;;;5506068;26;19994;-46
2024/04/16 06:39:41;;;;;;;10.93;2.70;;;9.50;99.90;;;;;;5506338;26;19990;-48
2024/04/16 06:42:07;;;;;;;22.27;5.20;;;9.50;99.90;;;;;;5506261;26;19990;-46
2024/04/16 06:44:33;;;;;;;13.48;2.70;;;9.60;99.90;;;;;;5506607;26;20001;-48
2024/04/16 06:46:58;;;;;;;13.75;2.53;;;9.70;99.90;;;;;;5505749;26;20076;-49
2024/04/16 06:49:24;;;;;;;17.80;2.85;;;9.70;99.90;;;;;;5505972;26;19992;-49
2024/04/16 06:51:49;;;;;;;10.43;2.20;;;9.90;99.90;;;;;;5505471;26;19986;-49
2024/04/16 06:54:15;;;;;;;15.48;3.13;;;9.90;99.90;;;;;;5506146;26;20036;-49
2024/04/16 06:56:41;;;;;;;11.38;2.05;;;9.90;99.90;;;;;;5506051;26;19994;-50
2024/04/16 06:59:07;;;;;;;12.48;1.77;;;9.90;99.90;;;;;;5505642;26;20039;-50
2024/04/16 07:01:32;;;;;;;14.32;2.97;;;9.80;99.90;;;;;;5505890;26;20164;-49
2024/04/16 07:03:59;;;;;;;10.57;1.92;;;9.80;99.90;;;;;;5505471;26;20069;-49
2024/04/16 07:06:26;;;;;;;10.13;2.22;;;9.80;99.90;;;;;;5505592;26;20043;-50
2024/04/16 07:08:51;;;;;;;10.10;2.10;;;9.70;99.90;;;;;;5505875;26;19997;-47
2024/04/16 07:11:17;;;;;;;11.70;2.50;;;9.80;99.90;;;;;;5505810;26;20026;-47
2024/04/16 07:13:45;;;;;;;12.55;2.13;;;9.70;99.90;;;;;;5504547;26;20040;-50
2024/04/16 07:16:11;;;;;;;13.30;2.50;;;9.80;99.90;;;;;;5505314;26;19986;-47
2024/04/16 07:18:36;;;;;;;15.00;2.30;;;9.90;99.90;;;;;;5505744;26;20068;-49
2024/04/16 07:21:02;;;;;;;13.23;2.67;;;10.00;99.90;;;;;;5505290;26;19990;-49
2024/04/16 07:23:28;;;;;;;10.80;2.20;;;10.00;99.90;;;;;;5505891;26;19986;-47
2024/04/16 07:25:53;;;;;;;17.33;3.22;;;10.10;99.90;;;;;;5505569;26;19986;-51
2024/04/16 07:28:19;;;;;;;14.18;2.40;;;10.10;99.90;;;;;;5505460;26;20187;-49
2024/04/16 07:30:45;;;;;;;13.50;2.08;;;10.00;99.90;;;;;;5505029;26;20056;-50
2024/04/16 07:33:11;;;;;;;15.13;2.28;;;10.10;99.90;;;;;;5504748;26;19993;-49
2024/04/16 07:35:36;;;;;;;13.27;2.22;;;10.00;99.90;;;;;;5504775;26;19990;-50
2024/04/16 07:38:02;;;;;;;13.60;2.75;;;10.10;99.90;;;;;;5504620;26;19990;-50
2024/04/16 07:40:28;;;;;;;11.70;2.63;;;10.20;99.90;;;;;;5504755;26;20062;-50
2024/04/16 07:42:53;;;;;;;13.77;3.25;;;10.40;99.90;;;;;;5503863;26;20176;-48
2024/04/16 07:45:19;;;;;;;13.43;2.53;;;10.70;99.90;;;;;;5503914;26;20038;-49
2024/04/16 07:47:44;;;;;;;16.10;4.25;;;11.40;99.90;;;;;;5504308;26;19993;-48
2024/04/16 07:50:10;;;;;;;11.90;1.90;;;11.60;99.90;;;;;;5503049;26;19986;-46
2024/04/16 07:52:36;;;;;;;13.20;2.08;;;12.00;99.90;;;;;;5504160;26;19992;-47
2024/04/16 07:55:02;;;;;;;9.20;1.88;;;12.00;99.90;;;;;;5503266;26;20001;-50
2024/04/16 07:57:27;;;;;;;12.68;1.85;;;11.70;99.90;;;;;;5503693;26;20172;-49
2024/04/16 07:59:53;;;;;;;11.40;2.50;;;12.10;99.90;;;;;;5503726;26;20034;-49
2024/04/16 08:02:18;;;;;;;9.23;2.35;;;12.30;99.90;;;;;;5503978;26;20042;-49
2024/04/16 08:04:44;;;;;;;10.65;2.53;;;12.30;99.90;;;;;;5504457;26;19986;-49
2024/04/16 08:07:10;;;;;;;10.18;1.50;;;13.20;99.90;;;;;;5503830;26;19990;-50
2024/04/16 08:09:36;;;;;;;9.95;2.17;;;14.10;99.90;;;;;;5504594;26;19997;-46
2024/04/16 08:12:02;;;;;;;17.23;2.25;;;14.60;99.90;;;;;;5504195;26;19986;-49
2024/04/16 08:14:28;;;;;;;9.90;1.60;;;14.40;99.90;;;;;;5503726;26;20160;-51
2024/04/16 08:16:53;;;;;;;8.27;1.83;;;14.60;99.90;;;;;;5503230;26;19986;-48
2024/04/16 08:19:19;;;;;;;14.65;2.22;;;14.90;99.90;;;;;;5504369;26;20047;-47
2024/04/16 08:21:45;;;;;;;9.18;2.00;;;14.40;99.90;;;;;;5503875;26;20038;-47
2024/04/16 08:24:11;;;;;;;11.30;2.22;;;14.00;99.90;;;;;;5503744;26;20210;-48
2024/04/16 08:26:37;;;;;;;7.95;1.42;;;13.30;99.90;;;;;;5503273;26;19990;-50
2024/04/16 08:29:02;;;;;;;11.30;2.05;;;13.30;99.90;;;;;;5503279;26;20166;-50
2024/04/16 08:31:28;;;;;;;11.82;2.20;;;14.10;99.90;;;;;;5504054;26;19986;-46
2024/04/16 08:33:54;;;;;;;13.52;2.22;;;14.90;99.90;;;;;;5503841;26;20006;-49
2024/04/16 08:36:19;;;;;;;13.70;1.85;;;15.40;99.90;;;;;;5503915;26;19998;-47
2024/04/16 08:38:45;;;;;;;11.20;2.03;;;14.70;99.90;;;;;;5503239;26;20001;-50
2024/04/16 08:41:11;;;;;;;7.65;1.65;;;13.80;99.90;;;;;;5502881;26;19986;-47
2024/04/16 08:43:37;;;;;;;11.13;1.92;;;14.00;99.90;;;;;;5503326;26;20052;-50
2024/04/16 08:46:03;;;;;;;11.65;4.47;;;15.10;99.90;;;;;;5503363;26;20175;-51
2024/04/16 08:48:29;;;;;;;10.85;1.95;;;15.50;99.90;;;;;;5502724;26;19986;-47
2024/04/16 08:50:56;;;;;;;12.60;4.40;;;16.00;99.90;;;;;;5502263;26;20010;-50
2024/04/16 08:53:22;;;;;;;9.98;2.03;;;16.30;99.90;;;;;;5503495;26;20002;-50
2024/04/16 08:55:48;;;;;;;9.25;1.70;;;17.00;99.90;;;;;;5442081;26;20043;-47
2024/04/16 08:58:13;;;;;;;10.80;3.00;;;16.00;99.90;;;;;;5503643;26;19990;-48
2024/04/16 09:00:39;;;;;;;5.57;1.73;;;16.50;99.90;;;;;;5503395;26;19990;-50
2024/04/16 09:03:04;;;;;;;10.82;1.98;;;16.40;99.90;;;;;;5471772;26;20007;-49
2024/04/16 09:05:30;;;;;;;9.35;2.05;;;16.70;99.90;;;;;;5503472;26;19986;-48
2024/04/16 09:07:56;;;;;;;8.80;1.80;;;16.60;99.90;;;;;;5503420;26;19990;-50
2024/04/16 09:10:24;;;;;;;10.25;2.05;;;16.30;99.90;;;;;;5503661;26;20055;-47
2024/04/16 09:12:50;;;;;;;10.35;2.35;;;15.30;99.90;;;;;;5505654;26;19990;-48
2024/04/16 09:15:17;;;;;;;9.18;1.48;;;15.10;99.90;;;;;;5506270;26;19997;-50
2024/04/16 09:17:49;;;;;;;8.68;1.77;;;14.40;99.90;;;;;;5506326;26;20044;-48
2024/04/16 09:20:21;;;;;;;13.05;1.80;;;14.20;99.90;;;;;;5507147;26;19986;-50
2024/04/16 09:22:48;;;;;;;8.13;1.98;;;14.30;99.90;;;;;;5506848;26;19986;-50
2024/04/16 09:25:14;;;;;;;8.63;1.80;;;14.20;99.90;;;;;;5506783;26;19993;-50
2024/04/16 09:27:40;;;;;;;5.53;1.67;;;13.90;99.90;;;;;;5506723;26;19994;-49
2024/04/16 09:30:12;;;;;;;12.27;1.75;;;13.60;99.90;;;;;;5506874;26;19989;-48
2024/04/16 09:32:39;;;;;;;10.85;2.17;;;13.70;99.90;;;;;;5506573;26;19990;-49
2024/04/16 09:35:05;;;;;;;11.15;2.30;;;13.90;99.90;;;;;;5506477;26;20218;-46
2024/04/16 09:37:32;;;;;;;11.38;1.90;;;14.10;99.90;;;;;;5506375;26;20022;-50
2024/04/16 09:39:59;;;;;;;7.25;1.60;;;14.30;99.90;;;;;;5506868;26;19982;-46
2024/04/16 09:42:27;;;;;;;9.25;2.08;;;15.10;99.90;;;;;;5506540;26;20122;-46
2024/04/16 09:44:54;;;;;;;16.30;2.53;;;15.40;99.90;;;;;;5506504;26;19994;-50
2024/04/16 09:47:19;;;;;;;7.05;1.88;;;15.50;99.90;;;;;;5505167;26;20040;-50
2024/04/16 09:49:45;;;;;;;9.40;1.70;;;15.30;99.90;;;;;;5506031;26;19994;-51
2024/04/16 09:52:14;;;;;;;6.68;1.40;;;15.70;99.90;;;;;;5505541;26;20009;-51
2024/04/16 09:54:43;;;;;;;6.18;1.58;;;16.40;99.90;;;;;;5506631;26;19986;-50
2024/04/16 09:57:10;;;;;;;8.95;2.03;;;16.10;99.90;;;;;;5505479;26;20040;-51
2024/04/16 09:59:40;;;;;;;8.02;1.80;;;15.20;99.90;;;;;;5506376;26;20059;-49
2024/04/16 10:02:07;;;;;;;11.80;3.55;;;14.60;99.90;;;;;;5506056;26;20094;-50
2024/04/16 10:04:32;;;;;;;11.60;2.13;;;14.40;99.90;;;;;;5505706;26;19986;-51
2024/04/16 10:06:58;;;;;;;8.23;1.80;;;14.50;99.90;;;;;;5504632;26;19993;-51
2024/04/16 10:09:24;;;;;;;8.45;1.73;;;14.70;99.90;;;;;;5506078;26;19998;-51
2024/04/16 10:11:49;;;;;;;7.57;1.65;;;14.70;99.90;;;;;;5505722;26;20059;-51
2024/04/16 10:14:15;;;;;;;11.07;1.90;;;14.90;99.90;;;;;;5474903;26;20157;-50
2024/04/16 10:16:41;;;;;;;5.88;1.55;;;15.20;99.90;;;;;;5474547;26;20010;-52
2024/04/16 10:19:07;;;;;;;7.70;1.77;;;15.60;99.90;;;;;;5505327;26;19993;-51
2024/04/16 10:21:39;;;;;;;7.70;2.05;;;15.60;99.90;;;;;;5505616;26;19998;-50
2024/04/16 10:24:11;;;;;;;7.47;2.00;;;15.40;99.90;;;;;;5505927;26;20116;-51
2024/04/16 10:26:39;;;;;;;8.20;2.03;;;15.30;99.90;;;;;;5506210;26;19997;-51
2024/04/16 10:29:15;;;;;;;4.93;1.33;;;15.50;99.90;;;;;;5505588;26;20171;-51
2024/04/16 10:31:41;;;;;;;7.70;1.40;;;15.20;99.90;;;;;;5506268;26;19987;-51
2024/04/16 10:34:06;;;;;;;12.20;1.95;;;14.50;99.90;;;;;;5505430;26;19993;-51
2024/04/16 10:36:33;;;;;;;8.05;2.13;;;14.50;99.90;;;;;;5505652;26;19990;-50
2024/04/16 10:38:58;;;;;;;7.68;2.40;;;14.90;99.90;;;;;;5505141;26;20047;-49
2024/04/16 10:41:28;;;;;;;7.85;2.00;;;15.20;99.90;;;;;;5504105;26;19986;-50
2024/04/16 10:43:56;;;;;;;6.75;1.98;;;15.10;99.90;;;;;;5474272;26;20044;-51
2024/04/16 10:46:22;;;;;;;9.68;2.20;;;14.70;99.90;;;;;;5504831;26;19990;-51
2024/04/16 10:48:48;;;;;;;7.50;1.95;;;15.00;99.90;;;;;;5505346;26;19990;-51
2024/04/16 10:51:15;;;;;;;6.57;2.03;;;15.40;99.90;;;;;;5504096;26;20010;-52
2024/04/16 10:53:41;;;;;;;8.68;2.47;;;15.70;99.90;;;;;;5504130;26;19990;-51
2024/04/16 10:56:09;;;;;;;8.45;1.80;;;15.30;99.90;;;;;;5505156;26;20214;-51
2024/04/16 10:58:35;;;;;;;6.57;1.77;;;15.20;99.90;;;;;;5473826;26;20057;-51
2024/04/16 11:01:04;;;;;;;5.68;1.45;;;16.50;99.90;;;;;;5505045;26;19987;-49
2024/04/16 11:03:33;;;;;;;9.70;1.80;;;17.20;99.90;;;;;;5474276;26;20014;-51
2024/04/16 11:05:59;;;;;;;6.13;2.00;;;16.90;99.90;;;;;;5505250;26;20177;-51
2024/04/16 11:08:26;;;;;;;12.68;5.32;;;17.00;99.90;;;;;;5504087;26;19990;-51
2024/04/16 11:10:51;;;;;;;6.35;1.80;;;17.10;99.90;;;;;;5504220;26;20033;-48
2024/04/16 11:13:18;;;;;;;7.72;1.73;;;17.10;99.90;;;;;;5503461;26;20049;-51
2024/04/16 11:15:43;;;;;;;5.50;1.30;;;18.60;99.90;;;;;;5503230;26;20178;-47
2024/04/16 11:18:09;;;;;;;6.20;1.73;;;18.30;99.90;;;;;;5504199;26;20001;-47
2024/04/16 11:20:35;;;;;;;8.93;4.65;;;17.60;99.90;;;;;;5504938;26;20166;-48
2024/04/16 11:23:00;;;;;;;4.07;1.58;;;17.80;99.90;;;;;;5502738;26;19998;-50
2024/04/16 11:25:30;;;;;;;4.65;1.40;;;16.80;99.90;;;;;;5503246;26;20160;-51
2024/04/16 11:27:55;;;;;;;5.93;1.58;;;16.10;99.90;;;;;;5503943;26;20171;-51
2024/04/16 11:30:21;;;;;;;9.77;1.63;;;15.90;99.90;;;;;;5503568;26;19986;-51
2024/04/16 11:32:47;;;;;;;10.57;1.75;;;15.50;99.90;;;;;;5502452;26;20009;-52
2024/04/16 11:35:12;;;;;;;6.20;1.95;;;15.80;99.90;;;;;;5504694;26;20005;-53
2024/04/16 11:37:38;;;;;;;6.07;1.58;;;17.20;99.90;;;;;;5504531;26;20021;-49
2024/04/16 11:40:07;;;;;;;7.45;1.60;;;16.90;99.90;;;;;;5473047;26;20010;-52
2024/04/16 11:42:34;;;;;;;6.88;1.67;;;16.80;99.90;;;;;;5504254;26;19994;-53
2024/04/16 11:44:59;;;;;;;5.57;1.73;;;17.10;99.90;;;;;;5503527;26;19986;-49
2024/04/16 11:47:25;;;;;;;9.02;2.35;;;17.50;99.90;;;;;;5502824;26;19997;-49
2024/04/16 11:49:51;;;;;;;4.35;1.25;;;16.80;99.90;;;;;;5504144;26;19994;-50
2024/04/16 11:52:17;;;;;;;6.72;2.05;;;17.30;99.90;;;;;;5504036;26;19997;-51
2024/04/16 11:54:43;;;;;;;6.72;1.45;;;18.20;99.90;;;;;;5504093;26;20045;-52
2024/04/16 11:57:09;;;;;;;6.72;1.75;;;19.00;99.90;;;;;;5502787;26;19990;-48
2024/04/16 11:59:34;;;;;;;7.10;1.33;;;19.40;99.90;;;;;;5503850;26;19990;-51
2024/04/16 12:02:00;;;;;;;5.55;1.50;;;19.60;99.90;;;;;;5503536;26;19990;-52
2024/04/16 12:04:26;;;;;;;8.20;1.60;;;19.50;99.90;;;;;;5503906;26;19986;-48
2024/04/16 12:06:52;;;;;;;9.38;1.63;;;20.10;99.90;;;;;;5504247;26;20048;-52
2024/04/16 12:09:18;;;;;;;7.70;2.75;;;20.60;99.90;;;;;;5503225;26;20064;-50
2024/04/16 12:11:44;;;;;;;7.43;1.75;;;21.10;99.90;;;;;;5503960;26;20073;-52
2024/04/16 12:14:10;;;;;;;6.55;1.60;;;20.40;99.90;;;;;;5503671;26;19994;-48
2024/04/16 12:16:38;;;;;;;7.60;1.83;;;20.80;99.90;;;;;;5503830;26;20054;-52
2024/04/16 12:19:04;;;;;;;7.53;1.73;;;20.80;99.90;;;;;;5503009;26;20019;-52
2024/04/16 12:21:30;;;;;;;6.60;1.45;;;20.80;99.90;;;;;;5503686;26;19986;-53
2024/04/16 12:23:56;;;;;;;13.57;5.15;;;20.60;99.90;;;;;;5504288;26;20158;-50
2024/04/16 12:26:21;;;;;;;11.80;2.25;;;20.80;99.90;;;;;;5503962;26;20053;-53
2024/04/16 12:28:48;;;;;;;10.52;2.35;;;20.80;99.90;;;;;;5503519;26;19986;-52
2024/04/16 12:31:14;;;;;;;9.82;2.33;;;21.30;99.90;;;;;;5502908;26;20048;-50
2024/04/16 12:33:39;;;;;;;7.85;1.88;;;19.50;99.90;;;;;;5503819;26;20002;-52
2024/04/16 12:36:05;;;;;;;33.95;4.82;;;19.70;99.90;;;;;;5503983;26;20040;-51
2024/04/16 12:38:31;;;;;;;37.78;4.55;;;19.50;99.90;;;;;;5504093;26;19994;-53